Time;durP1;ratioP1;P1;durP2;ratioP2;P2;SDS_P1;SDS_P2;PMS_P1;PMS_P2;Temp;Humidity;BMP_temperature;BMP_pressure;BME280_temperature;BME280_humidity;BME280_pressure;Samples;Min_cycle;Max_cycle;Signal;HPM_P1;HPM_P2
2021/07/24 00:01:12;;;;;;;7.93;7.13;;;;;;;;;;5047032;28;20471;-80
2021/07/24 00:03:39;;;;;;;10.63;7.37;;;;;;;;;;5032900;28;20384;-81
2021/07/24 00:06:05;;;;;;;7.40;6.70;;;;;;;;;;5044203;28;20419;-81
2021/07/24 00:08:31;;;;;;;7.97;6.30;;;;;;;;;;5049127;28;20478;-81
2021/07/24 00:10:57;;;;;;;6.73;5.80;;;;;;;;;;5045339;28;20415;-81
2021/07/24 00:13:23;;;;;;;8.13;6.80;;;;;;;;;;5045288;28;20442;-81
2021/07/24 00:15:49;;;;;;;9.07;7.27;;;;;;;;;;5046891;28;20464;-81
2021/07/24 00:18:15;;;;;;;8.80;7.37;;;;;;;;;;5047699;28;20555;-81
2021/07/24 00:20:41;;;;;;;8.93;6.90;;;;;;;;;;5046353;28;20967;-81
2021/07/24 00:23:09;;;;;;;7.37;6.33;;;;;;;;;;5047019;28;20438;-81
2021/07/24 00:25:35;;;;;;;7.53;6.70;;;;;;;;;;5047777;28;20454;-81
2021/07/24 00:28:01;;;;;;;14.13;6.00;;;;;;;;;;5044349;28;20491;-80
2021/07/24 00:30:27;;;;;;;7.33;6.53;;;;;;;;;;5034011;28;20425;-81
2021/07/24 00:32:53;;;;;;;8.57;6.93;;;;;;;;;;5036280;28;20515;-81
2021/07/24 00:35:19;;;;;;;7.53;6.17;;;;;;;;;;5040243;28;20764;-81
2021/07/24 00:37:45;;;;;;;8.53;6.23;;;;;;;;;;5046630;28;20446;-81
2021/07/24 00:40:14;;;;;;;8.23;6.80;;;;;;;;;;5030586;28;20442;-81
2021/07/24 00:42:42;;;;;;;7.63;6.83;;;;;;;;;;5046815;28;20387;-81
2021/07/24 00:45:08;;;;;;;8.10;7.07;;;;;;;;;;5046621;28;20450;-80
2021/07/24 00:47:38;;;;;;;9.73;6.70;;;;;;;;;;5042106;28;20492;-81
2021/07/24 00:50:04;;;;;;;8.03;6.83;;;;;;;;;;5036346;28;20441;-81
2021/07/24 00:52:30;;;;;;;10.13;6.57;;;;;;;;;;5045694;28;20444;-81
2021/07/24 00:54:56;;;;;;;10.73;7.50;;;;;;;;;;5045660;28;20416;-81
2021/07/24 00:57:22;;;;;;;10.57;6.50;;;;;;;;;;5032924;28;20436;-81
2021/07/24 00:59:48;;;;;;;8.97;7.43;;;;;;;;;;5033369;28;20469;-80
2021/07/24 01:02:14;;;;;;;8.23;7.37;;;;;;;;;;5038152;28;20407;-81
2021/07/24 01:04:40;;;;;;;10.30;7.53;;;;;;;;;;5043970;28;20441;-81
2021/07/24 01:07:07;;;;;;;7.97;6.67;;;;;;;;;;5028770;28;20418;-80
2021/07/24 01:09:33;;;;;;;8.70;6.70;;;;;;;;;;5042483;28;20916;-81
2021/07/24 01:12:02;;;;;;;9.30;7.63;;;;;;;;;;5036908;28;20883;-81
2021/07/24 01:14:31;;;;;;;10.03;7.30;;;;;;;;;;5035499;28;20509;-80
2021/07/24 01:16:57;;;;;;;7.77;6.97;;;;;;;;;;5034691;28;20446;-81
2021/07/24 01:19:23;;;;;;;14.00;7.60;;;;;;;;;;5031537;28;20444;-80
2021/07/24 01:21:49;;;;;;;10.13;6.60;;;;;;;;;;5036403;28;20433;-81
2021/07/24 01:24:15;;;;;;;9.97;7.27;;;;;;;;;;5033737;28;20436;-81
2021/07/24 01:26:44;;;;;;;10.00;7.40;;;;;;;;;;5035299;28;20408;-81
2021/07/24 01:29:20;;;;;;;10.07;7.67;;;;;;;;;;5035710;28;20436;-81
2021/07/24 01:31:46;;;;;;;8.20;6.83;;;;;;;;;;5032906;28;20428;-81
2021/07/24 01:34:12;;;;;;;8.50;7.00;;;;;;;;;;5044334;28;20491;-80
2021/07/24 01:36:38;;;;;;;7.03;6.33;;;;;;;;;;5045253;28;20898;-81
2021/07/24 01:39:04;;;;;;;8.20;5.83;;;;;;;;;;5046145;28;20436;-81
2021/07/24 01:41:30;;;;;;;6.77;5.77;;;;;;;;;;5039765;28;20496;-81
2021/07/24 01:43:56;;;;;;;6.17;5.57;;;;;;;;;;5034906;28;20418;-82
2021/07/24 01:46:23;;;;;;;6.70;5.53;;;;;;;;;;5047086;28;20429;-82
2021/07/24 01:49:04;;;;;;;5.60;5.07;;;;;;;;;;5028201;28;20464;-81
2021/07/24 01:54:27;;;;;;;6.20;5.60;;;;;;;;;;5032939;28;20399;-81
2021/07/24 01:56:54;;;;;;;7.20;6.13;;;;;;;;;;5035950;28;20434;-82
2021/07/24 01:59:22;;;;;;;7.70;5.80;;;;;;;;;;5035535;28;20479;-81
2021/07/24 02:01:50;;;;;;;6.33;5.67;;;;;;;;;;5043188;28;20423;-82
2021/07/24 02:04:19;;;;;;;9.17;6.57;;;;;;;;;;5043900;28;20434;-81
2021/07/24 02:06:45;;;;;;;8.97;5.80;;;;;;;;;;5044308;28;20413;-82
2021/07/24 02:09:12;;;;;;;5.50;4.87;;;;;;;;;;5044167;28;20444;-81
2021/07/24 02:11:38;;;;;;;6.50;5.07;;;;;;;;;;5043398;28;20417;-83
2021/07/24 02:14:05;;;;;;;6.17;5.57;;;;;;;;;;5045279;28;20421;-81
2021/07/24 02:16:32;;;;;;;4.83;4.40;;;;;;;;;;5040433;28;20532;-81
2021/07/24 02:18:58;;;;;;;5.93;4.70;;;;;;;;;;5028350;28;20434;-81
2021/07/24 02:21:24;;;;;;;5.83;5.07;;;;;;;;;;5044013;28;20472;-81
2021/07/24 02:23:50;;;;;;;5.23;4.63;;;;;;;;;;5043438;28;20403;-81
2021/07/24 02:26:16;;;;;;;4.80;3.63;;;;;;;;;;5044792;28;20945;-82
2021/07/24 02:28:42;;;;;;;4.93;4.43;;;;;;;;;;5044654;28;20407;-81
2021/07/24 02:31:08;;;;;;;4.57;3.50;;;;;;;;;;5027828;28;20392;-82
2021/07/24 02:33:33;;;;;;;6.50;4.00;;;;;;;;;;5046443;28;20403;-82
2021/07/24 02:35:59;;;;;;;5.10;3.87;;;;;;;;;;5046129;28;20464;-81
2021/07/24 02:38:25;;;;;;;4.73;3.90;;;;;;;;;;5042638;28;20435;-81
2021/07/24 02:40:51;;;;;;;5.50;3.60;;;;;;;;;;5045667;28;20609;-82
2021/07/24 02:43:18;;;;;;;3.30;2.97;;;;;;;;;;5043516;28;20403;-80
2021/07/24 02:45:44;;;;;;;5.70;3.37;;;;;;;;;;5043958;28;20416;-81
2021/07/24 02:48:10;;;;;;;3.33;3.00;;;;;;;;;;5043573;28;20415;-82
2021/07/24 02:50:35;;;;;;;5.50;3.63;;;;;;;;;;5042860;28;20510;-81
2021/07/24 02:53:01;;;;;;;3.47;3.10;;;;;;;;;;5040434;28;20958;-82
2021/07/24 02:55:28;;;;;;;5.30;3.60;;;;;;;;;;5053180;28;20500;-82
2021/07/24 02:57:54;;;;;;;4.53;3.00;;;;;;;;;;5026593;28;20426;-81
2021/07/24 03:00:20;;;;;;;3.97;2.93;;;;;;;;;;5045631;28;20946;-81
2021/07/24 03:02:46;;;;;;;2.97;2.63;;;;;;;;;;5044373;28;20848;-81
2021/07/24 03:05:12;;;;;;;3.67;3.07;;;;;;;;;;5045343;28;20414;-81
2021/07/24 03:07:38;;;;;;;3.40;3.00;;;;;;;;;;5043779;28;20406;-81
2021/07/24 03:10:04;;;;;;;3.30;3.00;;;;;;;;;;5043156;28;20429;-82
2021/07/24 03:12:30;;;;;;;3.80;3.07;;;;;;;;;;5037709;28;20420;-81
2021/07/24 03:14:56;;;;;;;2.90;2.57;;;;;;;;;;5045361;28;20440;-81
2021/07/24 03:17:23;;;;;;;5.07;3.37;;;;;;;;;;5040361;28;21053;-81
2021/07/24 03:19:49;;;;;;;4.70;3.90;;;;;;;;;;5030594;28;20485;-81
2021/07/24 03:22:15;;;;;;;4.40;2.90;;;;;;;;;;5042572;28;20486;-81
2021/07/24 03:24:41;;;;;;;3.90;3.47;;;;;;;;;;5028671;28;20907;-81
2021/07/24 03:27:07;;;;;;;2.67;2.43;;;;;;;;;;5041477;28;20437;-81
2021/07/24 03:29:33;;;;;;;6.83;3.47;;;;;;;;;;5043842;28;20432;-81
2021/07/24 03:31:59;;;;;;;3.80;2.93;;;;;;;;;;5045039;28;20800;-81
2021/07/24 03:34:25;;;;;;;4.20;2.80;;;;;;;;;;5043145;28;20434;-81
2021/07/24 03:36:51;;;;;;;7.47;3.03;;;;;;;;;;5037607;28;20438;-82
2021/07/24 03:39:17;;;;;;;3.87;3.13;;;;;;;;;;5032389;28;20551;-81
2021/07/24 03:41:43;;;;;;;4.13;3.20;;;;;;;;;;5040804;28;20622;-81
2021/07/24 03:44:09;;;;;;;5.90;2.90;;;;;;;;;;5042362;28;20731;-81
2021/07/24 03:46:35;;;;;;;4.90;2.83;;;;;;;;;;5042810;28;20574;-81
2021/07/24 03:49:01;;;;;;;3.47;3.00;;;;;;;;;;5025820;28;20584;-81
2021/07/24 03:51:27;;;;;;;4.17;2.90;;;;;;;;;;5031190;28;20429;-81
2021/07/24 03:53:53;;;;;;;3.90;3.03;;;;;;;;;;5034152;28;20822;-81
2021/07/24 03:56:20;;;;;;;4.83;3.30;;;;;;;;;;5035634;28;20764;-81
2021/07/24 03:58:47;;;;;;;3.47;2.90;;;;;;;;;;5038931;28;20441;-81
2021/07/24 04:01:14;;;;;;;2.97;2.67;;;;;;;;;;5041006;28;20477;-81
2021/07/24 04:03:40;;;;;;;3.60;3.30;;;;;;;;;;5045941;28;20450;-81
2021/07/24 04:06:20;;;;;;;5.22;3.55;;;;;;;;;;5047215;28;20822;-82
2021/07/24 04:08:46;;;;;;;7.97;4.03;;;;;;;;;;5048791;28;20173;-81
2021/07/24 04:11:12;;;;;;;4.47;3.35;;;;;;;;;;5045348;28;20767;-82
2021/07/24 04:13:38;;;;;;;5.80;4.10;;;;;;;;;;5031486;28;20198;-81
2021/07/24 04:16:06;;;;;;;4.10;3.30;;;;;;;;;;5029134;28;20396;-81
2021/07/24 04:18:33;;;;;;;5.17;3.10;;;;;;;;;;5048578;28;20484;-82
2021/07/24 04:20:59;;;;;;;5.20;3.17;;;;;;;;;;5047280;28;20438;-81
2021/07/24 04:23:26;;;;;;;7.70;4.47;;;;;;;;;;5044726;28;20456;-81
2021/07/24 04:25:52;;;;;;;3.97;3.47;;;;;;;;;;5047460;28;20478;-81
2021/07/24 04:28:18;;;;;;;5.20;4.00;;;;;;;;;;5029751;28;20463;-81
2021/07/24 04:30:44;;;;;;;4.40;3.50;;;;;;;;;;5031702;28;20433;-82
2021/07/24 04:33:10;;;;;;;5.03;3.53;;;;;;;;;;5042854;28;20468;-81
2021/07/24 04:35:36;;;;;;;6.00;4.50;;;;;;;;;;5044968;28;20482;-82
2021/07/24 04:38:02;;;;;;;6.00;3.13;;;;;;;;;;5048026;28;20539;-82
2021/07/24 04:40:28;;;;;;;3.92;2.95;;;;;;;;;;5045901;28;20467;-82
2021/07/24 04:42:54;;;;;;;4.03;3.20;;;;;;;;;;5029481;28;20185;-81
2021/07/24 04:45:20;;;;;;;4.93;3.40;;;;;;;;;;5035801;28;20974;-81
2021/07/24 04:47:46;;;;;;;4.85;3.47;;;;;;;;;;5045727;28;20463;-81
2021/07/24 04:50:12;;;;;;;4.30;3.20;;;;;;;;;;5047479;28;20196;-81
2021/07/24 04:52:39;;;;;;;3.95;3.55;;;;;;;;;;5045859;28;20537;-82
2021/07/24 04:55:05;;;;;;;3.63;3.30;;;;;;;;;;5045142;28;20182;-81
2021/07/24 04:57:31;;;;;;;4.63;4.18;;;;;;;;;;5041803;28;20196;-81
2021/07/24 04:59:58;;;;;;;6.55;3.35;;;;;;;;;;5045989;28;20297;-81
2021/07/24 05:02:24;;;;;;;5.05;3.55;;;;;;;;;;5046191;28;20192;-81
2021/07/24 05:04:50;;;;;;;5.65;3.78;;;;;;;;;;5047537;28;20189;-82
2021/07/24 05:07:17;;;;;;;3.53;3.20;;;;;;;;;;5044582;28;20188;-81
2021/07/24 05:09:43;;;;;;;4.05;3.60;;;;;;;;;;5029799;28;20174;-83
2021/07/24 05:12:09;;;;;;;5.72;3.53;;;;;;;;;;5034421;28;20189;-81
2021/07/24 05:14:36;;;;;;;4.75;3.50;;;;;;;;;;5033683;28;20185;-82
2021/07/24 05:17:05;;;;;;;3.72;3.10;;;;;;;;;;5036704;28;20229;-82
2021/07/24 05:19:31;;;;;;;5.30;3.72;;;;;;;;;;5046060;28;20199;-81
2021/07/24 05:21:57;;;;;;;7.23;3.20;;;;;;;;;;5026926;28;20273;-81
2021/07/24 05:24:23;;;;;;;5.77;4.47;;;;;;;;;;5046440;28;20504;-82
2021/07/24 05:26:49;;;;;;;5.63;4.00;;;;;;;;;;5047294;28;20422;-82
2021/07/24 05:29:15;;;;;;;4.80;3.90;;;;;;;;;;5042749;28;20449;-80
2021/07/24 05:31:41;;;;;;;4.60;3.75;;;;;;;;;;5032225;28;20431;-80
2021/07/24 05:34:06;;;;;;;5.10;3.30;;;;;;;;;;5027526;28;20179;-82
2021/07/24 05:36:32;;;;;;;4.20;3.57;;;;;;;;;;5045514;28;20180;-82
2021/07/24 05:38:58;;;;;;;5.30;3.50;;;;;;;;;;5044253;28;20437;-82
2021/07/24 05:41:24;;;;;;;4.33;3.23;;;;;;;;;;5046083;28;20463;-81
2021/07/24 05:43:50;;;;;;;5.63;3.20;;;;;;;;;;5045207;28;20530;-82
2021/07/24 05:46:16;;;;;;;5.40;3.23;;;;;;;;;;5045143;28;20448;-81
2021/07/24 05:48:42;;;;;;;5.63;3.33;;;;;;;;;;5044734;28;20414;-81
2021/07/24 05:51:08;;;;;;;3.57;3.20;;;;;;;;;;5035275;28;20447;-82
2021/07/24 05:53:34;;;;;;;3.93;2.73;;;;;;;;;;5040388;28;20462;-81
2021/07/24 05:56:00;;;;;;;6.13;3.60;;;;;;;;;;5043836;28;20449;-82
2021/07/24 05:58:26;;;;;;;6.30;3.60;;;;;;;;;;5044608;28;20439;-81
2021/07/24 06:00:52;;;;;;;6.28;3.28;;;;;;;;;;5044455;28;20214;-81
2021/07/24 06:03:18;;;;;;;4.47;3.13;;;;;;;;;;5043466;28;20169;-81
2021/07/24 06:05:44;;;;;;;5.70;3.80;;;;;;;;;;5044462;28;20961;-82
2021/07/24 06:08:10;;;;;;;3.63;3.00;;;;;;;;;;5045663;28;20441;-82
2021/07/24 06:10:36;;;;;;;3.42;3.13;;;;;;;;;;5046438;28;20474;-82
2021/07/24 06:13:02;;;;;;;4.57;3.40;;;;;;;;;;5042401;28;20183;-81
2021/07/24 06:15:30;;;;;;;4.95;3.20;;;;;;;;;;5031957;28;20243;-81
2021/07/24 06:17:56;;;;;;;6.00;3.08;;;;;;;;;;5043381;28;20228;-82
2021/07/24 06:20:22;;;;;;;4.10;3.50;;;;;;;;;;5042690;28;20209;-82
2021/07/24 06:22:48;;;;;;;4.70;3.40;;;;;;;;;;5045152;28;20182;-83
2021/07/24 06:25:14;;;;;;;4.32;3.75;;;;;;;;;;5043210;28;20444;-81
2021/07/24 06:27:41;;;;;;;3.75;3.42;;;;;;;;;;5045717;28;20178;-83
2021/07/24 06:30:07;;;;;;;5.00;4.03;;;;;;;;;;5034096;28;20648;-81
2021/07/24 06:32:33;;;;;;;7.50;3.80;;;;;;;;;;5038368;28;20805;-82
2021/07/24 06:34:59;;;;;;;5.10;3.37;;;;;;;;;;5043323;28;20256;-82
2021/07/24 06:37:25;;;;;;;4.23;2.60;;;;;;;;;;5045780;28;20512;-82
2021/07/24 06:39:51;;;;;;;9.23;3.70;;;;;;;;;;5042680;28;20427;-81
2021/07/24 06:42:17;;;;;;;3.90;3.10;;;;;;;;;;5042935;28;20440;-83
2021/07/24 06:44:43;;;;;;;4.72;3.38;;;;;;;;;;5042061;28;20216;-81
2021/07/24 06:47:12;;;;;;;3.90;3.33;;;;;;;;;;5043261;28;20200;-81
2021/07/24 06:49:38;;;;;;;6.18;3.10;;;;;;;;;;5030980;28;20969;-81
2021/07/24 06:52:04;;;;;;;6.83;3.43;;;;;;;;;;5042314;28;20181;-81
2021/07/24 06:54:30;;;;;;;5.20;3.43;;;;;;;;;;5031636;28;20417;-82
2021/07/24 06:56:56;;;;;;;4.17;3.20;;;;;;;;;;5041037;28;20467;-83
2021/07/24 06:59:22;;;;;;;5.43;2.97;;;;;;;;;;5041652;28;21454;-81
2021/07/24 07:01:48;;;;;;;6.80;3.67;;;;;;;;;;5044323;28;20490;-81
2021/07/24 07:04:14;;;;;;;5.33;3.40;;;;;;;;;;5042532;28;20445;-81
2021/07/24 07:06:41;;;;;;;3.43;3.00;;;;;;;;;;5029404;28;20421;-82
2021/07/24 07:09:08;;;;;;;3.90;2.60;;;;;;;;;;5044311;28;20801;-82
2021/07/24 07:11:34;;;;;;;5.13;2.37;;;;;;;;;;5045540;28;20235;-82
2021/07/24 07:14:04;;;;;;;4.73;2.80;;;;;;;;;;5042081;28;20855;-82
2021/07/24 07:16:30;;;;;;;4.27;3.33;;;;;;;;;;5045124;28;20454;-82
2021/07/24 07:18:56;;;;;;;4.40;3.23;;;;;;;;;;5042071;28;20428;-81
2021/07/24 07:21:22;;;;;;;4.77;3.10;;;;;;;;;;5031933;28;20456;-82
2021/07/24 07:23:48;;;;;;;4.47;3.17;;;;;;;;;;5034474;28;20453;-83
2021/07/24 07:26:14;;;;;;;4.88;3.30;;;;;;;;;;5034224;28;20440;-82
2021/07/24 07:28:40;;;;;;;5.13;3.80;;;;;;;;;;5027725;28;20179;-81
2021/07/24 07:31:06;;;;;;;3.80;2.70;;;;;;;;;;5027273;28;20479;-81
2021/07/24 07:33:32;;;;;;;4.27;2.77;;;;;;;;;;5030827;28;20832;-82
2021/07/24 07:35:58;;;;;;;5.10;2.73;;;;;;;;;;5040356;28;20448;-81
2021/07/24 07:38:24;;;;;;;5.77;3.33;;;;;;;;;;5047103;28;20443;-82
2021/07/24 07:40:50;;;;;;;4.37;3.10;;;;;;;;;;5047679;28;20467;-81
2021/07/24 07:43:16;;;;;;;6.43;3.33;;;;;;;;;;5044934;28;20464;-81
2021/07/24 07:45:42;;;;;;;3.00;2.50;;;;;;;;;;5032516;28;20501;-82
2021/07/24 07:48:08;;;;;;;3.83;3.07;;;;;;;;;;5036434;28;20826;-81
2021/07/24 07:50:35;;;;;;;4.83;2.87;;;;;;;;;;5040614;28;20444;-82
2021/07/24 07:53:01;;;;;;;5.17;2.33;;;;;;;;;;5045546;28;20433;-80
2021/07/24 07:55:27;;;;;;;4.83;2.43;;;;;;;;;;5049196;28;20464;-81
2021/07/24 07:57:53;;;;;;;3.00;2.43;;;;;;;;;;5045909;28;20507;-83
2021/07/24 08:00:19;;;;;;;3.53;2.87;;;;;;;;;;5048020;28;20438;-82
2021/07/24 08:02:50;;;;;;;3.40;2.37;;;;;;;;;;5045619;28;20406;-82
2021/07/24 08:05:16;;;;;;;4.63;3.00;;;;;;;;;;5045764;28;20432;-81
2021/07/24 08:07:42;;;;;;;5.87;3.30;;;;;;;;;;5035746;28;20431;-81
2021/07/24 08:10:08;;;;;;;3.40;3.03;;;;;;;;;;5046780;28;20424;-81
2021/07/24 08:12:34;;;;;;;4.10;2.23;;;;;;;;;;5030718;28;20421;-82
2021/07/24 08:15:00;;;;;;;7.70;3.43;;;;;;;;;;5035303;28;20431;-82
2021/07/24 08:17:26;;;;;;;4.47;3.00;;;;;;;;;;5041139;28;20489;-82
2021/07/24 08:19:52;;;;;;;4.00;2.40;;;;;;;;;;5048013;28;20416;-83
2021/07/24 08:22:18;;;;;;;4.30;2.73;;;;;;;;;;5048852;28;20421;-81
2021/07/24 08:24:44;;;;;;;3.77;2.43;;;;;;;;;;5047470;28;20426;-82
2021/07/24 08:27:10;;;;;;;6.73;3.70;;;;;;;;;;5047499;28;20432;-81
2021/07/24 08:29:36;;;;;;;3.50;2.30;;;;;;;;;;5048889;28;20508;-82
2021/07/24 08:32:02;;;;;;;3.40;2.37;;;;;;;;;;5045512;28;20914;-83
2021/07/24 08:34:28;;;;;;;4.93;2.80;;;;;;;;;;5048064;28;20817;-82
2021/07/24 08:36:54;;;;;;;4.97;2.33;;;;;;;;;;5044835;28;20440;-81
2021/07/24 08:39:20;;;;;;;4.50;2.57;;;;;;;;;;5063255;28;20429;-81
2021/07/24 08:41:46;;;;;;;8.60;3.20;;;;;;;;;;5038534;28;20440;-81
2021/07/24 08:44:12;;;;;;;4.60;2.97;;;;;;;;;;5037672;28;20426;-82
2021/07/24 08:46:38;;;;;;;4.53;2.47;;;;;;;;;;5047182;28;20780;-82
2021/07/24 08:49:04;;;;;;;5.13;2.60;;;;;;;;;;5028950;28;20457;-81
2021/07/24 08:51:32;;;;;;;3.20;2.37;;;;;;;;;;5033659;28;20432;-82
2021/07/24 08:53:58;;;;;;;4.60;2.70;;;;;;;;;;5042012;28;20433;-81
2021/07/24 08:56:27;;;;;;;4.77;3.00;;;;;;;;;;5041270;28;20416;-81
2021/07/24 08:58:55;;;;;;;3.23;2.50;;;;;;;;;;5046737;28;20433;-84
2021/07/24 09:01:22;;;;;;;5.60;2.70;;;;;;;;;;5046581;28;20460;-82
2021/07/24 09:03:48;;;;;;;3.67;2.07;;;;;;;;;;5046360;28;20411;-81
2021/07/24 09:06:19;;;;;;;4.23;2.07;;;;;;;;;;5045894;28;20500;-82
2021/07/24 09:08:46;;;;;;;4.57;2.17;;;;;;;;;;5038717;28;20454;-82
2021/07/24 09:11:12;;;;;;;5.27;2.60;;;;;;;;;;5034967;28;20426;-81
2021/07/24 09:13:38;;;;;;;5.93;1.80;;;;;;;;;;5045841;28;20411;-82
2021/07/24 09:16:07;;;;;;;9.17;3.17;;;;;;;;;;5027966;28;20404;-81
2021/07/24 09:18:34;;;;;;;2.70;2.50;;;;;;;;;;5039887;28;20506;-82
2021/07/24 09:21:00;;;;;;;6.40;2.90;;;;;;;;;;5045823;28;20450;-81
2021/07/24 09:23:33;;;;;;;5.37;2.50;;;;;;;;;;5045709;28;20437;-82
2021/07/24 09:26:00;;;;;;;4.70;1.97;;;;;;;;;;5044745;28;20437;-81
2021/07/24 09:28:26;;;;;;;2.03;1.80;;;;;;;;;;5042369;28;20791;-82
2021/07/24 09:30:52;;;;;;;5.20;2.20;;;;;;;;;;5029680;28;20418;-81
2021/07/24 09:33:20;;;;;;;4.43;2.17;;;;;;;;;;5044254;28;20442;-81
2021/07/24 09:35:47;;;;;;;4.13;2.47;;;;;;;;;;5038538;28;20489;-81
2021/07/24 09:38:13;;;;;;;2.73;1.93;;;;;;;;;;5034597;28;20451;-82
2021/07/24 09:40:40;;;;;;;3.27;2.07;;;;;;;;;;5042792;28;20445;-82
2021/07/24 09:43:25;;;;;;;3.90;1.90;;;;;;;;;;5028025;28;20402;-81
2021/07/24 09:46:09;;;;;;;2.00;1.90;;;;;;;;;;5044867;28;20958;-81
2021/07/24 09:48:35;;;;;;;3.80;2.17;;;;;;;;;;5058421;28;20431;-82
2021/07/24 09:51:01;;;;;;;5.30;2.50;;;;;;;;;;5044909;28;20439;-81
2021/07/24 09:53:39;;;;;;;4.20;2.43;;;;;;;;;;5043568;28;20470;-82
2021/07/24 09:56:06;;;;;;;4.20;2.20;;;;;;;;;;5045214;28;20439;-82
2021/07/24 09:58:32;;;;;;;2.17;1.97;;;;;;;;;;5043636;28;20763;-81
2021/07/24 10:01:03;;;;;;;2.90;2.17;;;;;;;;;;5043002;28;20452;-81
2021/07/24 10:03:30;;;;;;;5.80;2.30;;;;;;;;;;5042568;28;20412;-81
2021/07/24 10:05:56;;;;;;;4.47;2.53;;;;;;;;;;5042512;28;20432;-82
2021/07/24 10:08:23;;;;;;;3.13;2.40;;;;;;;;;;5042740;28;20479;-82
2021/07/24 10:10:51;;;;;;;4.80;2.17;;;;;;;;;;5046221;28;20516;-82
2021/07/24 10:13:17;;;;;;;4.70;2.57;;;;;;;;;;5043831;28;20445;-82
2021/07/24 10:15:44;;;;;;;3.83;2.30;;;;;;;;;;5045154;28;21017;-81
2021/07/24 10:18:10;;;;;;;4.83;2.50;;;;;;;;;;5044450;28;20479;-82
2021/07/24 10:20:37;;;;;;;3.30;2.00;;;;;;;;;;5040934;28;20457;-83
2021/07/24 10:23:03;;;;;;;4.30;2.53;;;;;;;;;;5033195;28;20510;-82
2021/07/24 10:25:29;;;;;;;2.50;2.23;;;;;;;;;;5027775;28;21143;-82
2021/07/24 10:27:57;;;;;;;5.70;2.17;;;;;;;;;;5040325;28;20435;-81
2021/07/24 10:30:28;;;;;;;5.17;2.60;;;;;;;;;;5048146;28;20452;-80
2021/07/24 10:32:55;;;;;;;3.23;2.10;;;;;;;;;;5033207;28;20421;-81
2021/07/24 10:35:37;;;;;;;3.80;2.57;;;;;;;;;;5034926;28;20439;-80
2021/07/24 10:38:23;;;;;;;3.83;2.70;;;;;;;;;;5044519;28;21011;-82
2021/07/24 10:40:49;;;;;;;3.57;2.53;;;;;;;;;;5044396;28;20462;-80
2021/07/24 10:43:35;;;;;;;5.67;3.30;;;;;;;;;;5043322;28;20436;-81
2021/07/24 10:46:01;;;;;;;7.70;2.40;;;;;;;;;;5036413;28;20425;-81
2021/07/24 10:48:43;;;;;;;4.00;1.90;;;;;;;;;;5032531;28;20411;-81
2021/07/24 10:51:08;;;;;;;4.70;2.43;;;;;;;;;;5043561;28;20432;-82
2021/07/24 10:53:53;;;;;;;5.00;2.30;;;;;;;;;;5042216;28;20495;-80
2021/07/24 10:56:36;;;;;;;2.60;2.03;;;;;;;;;;5039886;28;20438;-81
2021/07/24 10:59:21;;;;;;;5.50;2.70;;;;;;;;;;5035298;28;20443;-82
2021/07/24 11:01:48;;;;;;;4.27;2.70;;;;;;;;;;5040581;28;21061;-81
2021/07/24 11:04:33;;;;;;;3.50;2.30;;;;;;;;;;5041421;28;20504;-81
2021/07/24 11:07:14;;;;;;;3.80;2.33;;;;;;;;;;5040223;28;20422;-81
2021/07/24 11:09:41;;;;;;;3.80;2.60;;;;;;;;;;5045064;28;20418;-81
2021/07/24 11:12:08;;;;;;;3.10;1.80;;;;;;;;;;5044088;28;21053;-81
2021/07/24 11:14:37;;;;;;;3.07;2.00;;;;;;;;;;5044621;28;20913;-80
2021/07/24 11:17:11;;;;;;;4.03;2.20;;;;;;;;;;5037620;28;20447;-81
2021/07/24 11:19:40;;;;;;;3.20;2.47;;;;;;;;;;5047960;28;20434;-81
2021/07/24 11:22:10;;;;;;;2.50;2.30;;;;;;;;;;5045597;28;20441;-81
2021/07/24 11:24:36;;;;;;;2.67;1.80;;;;;;;;;;5040927;28;20448;-81
2021/07/24 11:27:02;;;;;;;2.57;2.03;;;;;;;;;;5037115;28;20415;-81
2021/07/24 11:29:28;;;;;;;5.93;2.60;;;;;;;;;;5036636;28;20418;-81
2021/07/24 11:31:54;;;;;;;2.03;1.70;;;;;;;;;;5036984;28;20443;-81
2021/07/24 11:34:21;;;;;;;1.73;1.50;;;;;;;;;;5045134;28;20444;-81
2021/07/24 11:36:50;;;;;;;6.77;4.37;;;;;;;;;;5030855;28;20425;-81
2021/07/24 11:39:16;;;;;;;4.90;2.17;;;;;;;;;;5047566;28;20418;-81
2021/07/24 11:41:43;;;;;;;2.60;2.10;;;;;;;;;;5043566;28;20499;-81
2021/07/24 11:44:09;;;;;;;17.90;16.03;;;;;;;;;;5046176;28;20499;-81
2021/07/24 11:46:35;;;;;;;11.80;9.73;;;;;;;;;;5047591;28;20458;-80
2021/07/24 11:49:01;;;;;;;2.53;1.73;;;;;;;;;;5029795;28;20409;-81
2021/07/24 11:51:27;;;;;;;6.73;6.13;;;;;;;;;;5044178;28;20421;-80
2021/07/24 11:53:53;;;;;;;32.37;29.03;;;;;;;;;;5038525;28;20396;-81
2021/07/24 11:56:19;;;;;;;10.53;9.43;;;;;;;;;;5039121;28;20432;-81
2021/07/24 11:58:52;;;;;;;3.23;2.93;;;;;;;;;;5045899;28;20803;-80
2021/07/24 12:01:19;;;;;;;3.40;2.03;;;;;;;;;;5031322;28;20464;-80
2021/07/24 12:03:45;;;;;;;3.13;2.20;;;;;;;;;;5047141;28;20408;-81
2021/07/24 12:06:12;;;;;;;2.83;1.80;;;;;;;;;;5048442;28;20505;-81
2021/07/24 12:08:42;;;;;;;3.53;2.50;;;;;;;;;;5045548;28;20444;-80
2021/07/24 12:11:15;;;;;;;1.70;1.57;;;;;;;;;;5047737;28;20422;-81
2021/07/24 12:13:41;;;;;;;3.63;2.30;;;;;;;;;;5044606;28;20441;-81
2021/07/24 12:16:08;;;;;;;2.50;2.13;;;;;;;;;;5028942;28;20426;-81
2021/07/24 12:18:37;;;;;;;2.30;2.10;;;;;;;;;;5048369;28;20459;-81
2021/07/24 12:21:25;;;;;;;3.90;1.60;;;;;;;;;;5036281;28;20472;-80
2021/07/24 12:23:58;;;;;;;3.63;1.77;;;;;;;;;;5040160;28;20417;-81
2021/07/24 12:26:28;;;;;;;2.57;1.40;;;;;;;;;;5045468;28;20467;-82
2021/07/24 12:28:55;;;;;;;6.63;2.03;;;;;;;;;;5046186;28;20428;-80
2021/07/24 12:31:22;;;;;;;2.80;1.73;;;;;;;;;;5047989;28;20446;-79
2021/07/24 12:33:48;;;;;;;3.70;1.93;;;;;;;;;;5032848;28;20417;-80
2021/07/24 12:36:14;;;;;;;3.70;1.83;;;;;;;;;;5034689;28;20451;-83
2021/07/24 12:38:40;;;;;;;3.70;2.17;;;;;;;;;;5042100;28;20445;-80
2021/07/24 12:41:07;;;;;;;2.00;1.40;;;;;;;;;;5046519;28;20475;-81
2021/07/24 12:43:33;;;;;;;2.50;1.50;;;;;;;;;;5045308;28;20446;-81
2021/07/24 12:46:12;;;;;;;2.07;1.87;;;;;;;;;;5027662;28;20488;-81
2021/07/24 12:48:44;;;;;;;2.27;2.07;;;;;;;;;;5047421;28;20419;-81
2021/07/24 12:51:18;;;;;;;3.40;2.00;;;;;;;;;;5048233;28;20440;-81
2021/07/24 12:53:52;;;;;;;1.70;1.60;;;;;;;;;;5040371;28;20464;-82
2021/07/24 12:56:18;;;;;;;3.93;1.60;;;;;;;;;;5037706;28;20462;-81
2021/07/24 12:58:45;;;;;;;6.03;1.80;;;;;;;;;;5044468;28;20486;-81
2021/07/24 13:01:11;;;;;;;3.43;1.73;;;;;;;;;;5045168;28;20459;-81
2021/07/24 13:03:38;;;;;;;1.90;1.80;;;;;;;;;;5046588;28;20419;-81
2021/07/24 13:06:04;;;;;;;2.10;1.50;;;;;;;;;;5035551;28;20495;-82
2021/07/24 13:08:30;;;;;;;2.60;1.53;;;;;;;;;;5038491;28;20581;-81
2021/07/24 13:10:56;;;;;;;2.50;1.40;;;;;;;;;;5046899;28;20439;-81
2021/07/24 13:13:22;;;;;;;2.30;1.77;;;;;;;;;;5044826;28;20465;-81
2021/07/24 13:15:48;;;;;;;3.53;1.50;;;;;;;;;;5028401;28;20907;-81
2021/07/24 13:18:14;;;;;;;1.97;1.60;;;;;;;;;;5045443;28;20522;-81
2021/07/24 13:20:40;;;;;;;2.67;2.00;;;;;;;;;;5042991;28;20498;-81
2021/07/24 13:23:08;;;;;;;2.43;1.60;;;;;;;;;;5035679;28;20478;-82
2021/07/24 13:28:15;;;;;;;1.60;1.50;;;;;;;;;;5029969;28;20455;-81
2021/07/24 13:30:45;;;;;;;4.10;2.50;;;;;;;;;;5029171;28;20428;-81
2021/07/24 13:33:11;;;;;;;1.37;1.27;;;;;;;;;;5035419;28;20524;-81
2021/07/24 13:35:37;;;;;;;1.57;1.43;;;;;;;;;;5037592;28;20529;-82
2021/07/24 13:38:04;;;;;;;2.10;1.60;;;;;;;;;;5045375;28;20452;-81
2021/07/24 13:40:30;;;;;;;2.20;1.63;;;;;;;;;;5044508;28;20460;-81
2021/07/24 13:43:01;;;;;;;1.77;1.30;;;;;;;;;;5026679;28;20420;-81
2021/07/24 13:45:27;;;;;;;2.53;2.33;;;;;;;;;;5032602;28;20444;-81
2021/07/24 13:47:54;;;;;;;2.70;1.63;;;;;;;;;;5041437;28;20939;-81
2021/07/24 13:50:20;;;;;;;2.17;1.80;;;;;;;;;;5035090;28;20917;-81
2021/07/24 13:52:46;;;;;;;2.20;1.97;;;;;;;;;;5033993;28;20448;-81
2021/07/24 13:55:12;;;;;;;2.33;1.83;;;;;;;;;;5044423;28;20427;-81
2021/07/24 13:57:39;;;;;;;2.40;1.63;;;;;;;;;;5044827;28;20416;-81
2021/07/24 14:00:05;;;;;;;2.47;1.83;;;;;;;;;;5044358;28;20445;-81
2021/07/24 14:02:33;;;;;;;2.33;2.13;;;;;;;;;;5043782;28;20435;-81
2021/07/24 14:04:59;;;;;;;3.00;1.43;;;;;;;;;;5046839;28;20434;-81
2021/07/24 14:07:25;;;;;;;4.03;2.40;;;;;;;;;;5044840;28;20455;-81
2021/07/24 14:09:51;;;;;;;2.07;1.70;;;;;;;;;;5043434;28;20519;-82
2021/07/24 14:12:19;;;;;;;4.20;2.83;;;;;;;;;;5044555;28;20436;-81
2021/07/24 14:14:45;;;;;;;1.63;1.53;;;;;;;;;;5046080;28;20399;-81
2021/07/24 14:17:13;;;;;;;4.17;1.77;;;;;;;;;;5045502;28;20970;-81
2021/07/24 14:19:39;;;;;;;2.20;1.67;;;;;;;;;;5042297;28;20436;-81
2021/07/24 14:22:05;;;;;;;2.53;1.53;;;;;;;;;;5026446;28;20443;-81
2021/07/24 14:24:31;;;;;;;2.30;1.73;;;;;;;;;;5045659;28;20535;-80
2021/07/24 14:26:58;;;;;;;3.70;1.97;;;;;;;;;;5044597;28;20444;-80
2021/07/24 14:29:24;;;;;;;2.70;1.83;;;;;;;;;;5042777;28;20413;-80
2021/07/24 14:31:50;;;;;;;1.83;1.70;;;;;;;;;;5042150;28;20482;-81
2021/07/24 14:34:16;;;;;;;3.53;1.97;;;;;;;;;;5044849;28;20409;-81
2021/07/24 14:36:42;;;;;;;2.07;1.73;;;;;;;;;;5043725;28;20925;-81
2021/07/24 14:39:16;;;;;;;2.67;1.57;;;;;;;;;;5044270;28;20413;-80
2021/07/24 14:41:45;;;;;;;2.37;1.80;;;;;;;;;;5038506;28;20468;-81
2021/07/24 14:44:12;;;;;;;4.00;1.60;;;;;;;;;;5033222;28;20425;-81
2021/07/24 14:46:38;;;;;;;2.13;1.67;;;;;;;;;;5041244;28;20433;-82
2021/07/24 14:49:04;;;;;;;5.77;2.40;;;;;;;;;;5026576;28;20497;-82